createdAt,value
2023-03-03T00:00:02.374Z,36.20
2023-03-03T00:10:01.475Z,43.80
2023-03-03T00:20:02.703Z,35.80
2023-03-03T00:30:00.372Z,40.50
2023-03-03T00:40:01.059Z,31.80
2023-03-03T00:50:00.420Z,37.30
2023-03-03T01:10:02.369Z,28.10
2023-03-03T01:20:01.242Z,27.40
2023-03-03T01:30:01.262Z,27.90
2023-03-03T01:40:01.173Z,30.30
2023-03-03T01:50:00.388Z,30.40
2023-03-03T02:00:00.374Z,32.20
2023-03-03T02:10:01.365Z,28.00
2023-03-03T02:20:01.298Z,24.60
2023-03-03T02:30:01.054Z,24.30
2023-03-03T02:40:01.013Z,26.50
2023-03-03T02:50:01.244Z,23.40
2023-03-03T03:00:01.512Z,24.10
2023-03-03T03:10:01.569Z,22.80
2023-03-03T03:30:00.381Z,23.10
2023-03-03T03:50:00.382Z,25.30
2023-03-03T04:00:02.088Z,30.40
2023-03-03T04:10:01.103Z,29.70
2023-03-03T04:20:01.023Z,29.60
2023-03-03T04:30:00.397Z,31.40
2023-03-03T04:40:01.130Z,20.70
2023-03-03T04:50:01.072Z,27.20
2023-03-03T05:00:01.078Z,28.80
2023-03-03T05:10:01.903Z,26.30
2023-03-03T05:20:01.451Z,22.30
2023-03-03T05:30:01.000Z,36.00
2023-03-03T05:40:01.238Z,31.20
2023-03-03T05:50:01.503Z,29.20
2023-03-03T06:00:01.704Z,24.30
2023-03-03T06:10:00.378Z,27.60
2023-03-03T06:20:01.906Z,21.70
2023-03-03T06:30:01.031Z,36.50
2023-03-03T06:40:01.033Z,29.30
2023-03-03T06:50:00.997Z,22.70
2023-03-03T07:00:01.490Z,24.70
2023-03-03T07:10:01.215Z,29.50
2023-03-03T07:20:01.095Z,33.10
2023-03-03T07:30:02.412Z,40.80
2023-03-03T07:40:01.522Z,26.40
2023-03-03T07:50:01.075Z,29.30
2023-03-03T08:00:01.529Z,45.40
2023-03-03T08:10:02.733Z,36.30
2023-03-03T08:20:01.385Z,29.00
2023-03-03T08:30:00.385Z,28.70
2023-03-03T08:40:01.126Z,34.40
2023-03-03T08:50:01.889Z,32.10
2023-03-03T09:00:01.096Z,21.60
2023-03-03T09:10:01.542Z,24.80
2023-03-03T09:20:01.146Z,18.50
2023-03-03T09:30:04.241Z,27.00
2023-03-03T09:40:04.515Z,21.80
2023-03-03T09:50:02.629Z,19.00
2023-03-03T10:00:00.377Z,17.80
2023-03-03T10:10:02.325Z,18.70
2023-03-03T10:20:01.227Z,17.30
2023-03-03T10:40:01.227Z,23.70
2023-03-03T10:50:01.222Z,24.70
2023-03-03T11:00:01.242Z,18.00
2023-03-03T11:10:01.067Z,19.70
2023-03-03T11:20:02.170Z,22.80
2023-03-03T11:30:01.170Z,27.00
2023-03-03T11:40:01.487Z,21.10
2023-03-03T11:50:01.995Z,22.20
2023-03-03T12:00:01.039Z,26.10
2023-03-03T12:10:01.950Z,28.20
2023-03-03T12:20:02.206Z,24.40
2023-03-03T12:30:04.709Z,26.30
2023-03-03T12:40:01.412Z,32.40
2023-03-03T12:50:07.331Z,36.60
2023-03-03T13:00:00.381Z,33.30
2023-03-03T13:10:01.580Z,28.60
2023-03-03T13:20:00.376Z,31.60
2023-03-03T13:30:01.312Z,29.00
2023-03-03T13:40:01.849Z,31.40
2023-03-03T13:50:01.944Z,30.60
2023-03-03T14:00:01.776Z,25.80
2023-03-03T14:10:01.515Z,33.10
2023-03-03T14:20:03.392Z,29.30
2023-03-03T14:30:01.895Z,28.20
2023-03-03T14:40:01.886Z,30.80
2023-03-03T14:50:01.363Z,26.10
2023-03-03T15:00:01.842Z,23.70
2023-03-03T15:10:02.015Z,23.70
2023-03-03T15:20:01.255Z,28.80
2023-03-03T15:30:02.040Z,32.40
2023-03-03T15:40:01.907Z,34.60
2023-03-03T15:50:01.571Z,38.00
2023-03-03T16:00:01.545Z,38.40
2023-03-03T16:10:01.341Z,30.40
2023-03-03T16:20:01.246Z,24.70
2023-03-03T16:30:01.561Z,30.50
2023-03-03T16:40:01.484Z,29.40
2023-03-03T16:50:02.144Z,27.50
2023-03-03T17:00:04.854Z,29.60
2023-03-03T17:10:01.919Z,28.80
2023-03-03T17:20:01.040Z,28.60
2023-03-03T17:30:01.965Z,38.60
2023-03-03T17:40:04.105Z,30.20
2023-03-03T17:50:03.329Z,27.60
2023-03-03T18:00:01.149Z,25.30
2023-03-03T18:10:02.241Z,26.70
2023-03-03T18:20:03.398Z,30.40
2023-03-03T18:30:04.538Z,29.10
2023-03-03T18:40:02.077Z,31.70
2023-03-03T18:50:01.395Z,41.70
2023-03-03T19:00:00.389Z,31.20
2023-03-03T19:10:02.042Z,41.80
2023-03-03T19:20:00.983Z,37.60
2023-03-03T19:30:01.489Z,46.70
2023-03-03T19:40:01.065Z,41.30
2023-03-03T19:50:01.068Z,34.80
2023-03-03T20:00:00.373Z,24.70
2023-03-03T20:10:02.954Z,31.30
2023-03-03T20:20:02.000Z,23.90
2023-03-03T20:30:01.042Z,27.60
2023-03-03T20:40:01.250Z,41.20
2023-03-03T20:50:01.017Z,42.70
2023-03-03T21:00:03.151Z,31.70
2023-03-03T21:10:00.394Z,25.40
2023-03-03T21:20:01.332Z,24.60
2023-03-03T21:30:01.342Z,44.00
2023-03-03T21:40:01.928Z,39.90
2023-03-03T21:50:01.410Z,35.90
2023-03-03T22:00:02.017Z,29.00
2023-03-03T22:10:02.027Z,36.30
2023-03-03T22:20:01.292Z,27.00
2023-03-03T22:30:00.387Z,28.70
2023-03-03T22:40:02.057Z,27.90
2023-03-03T23:00:01.991Z,45.70
2023-03-03T23:10:02.357Z,31.70
2023-03-03T23:20:01.557Z,43.60
2023-03-03T23:30:00.377Z,61.20
2023-03-03T23:40:01.533Z,64.00
2023-03-03T23:50:02.383Z,70.60
